Time;durP1;ratioP1;P1;durP2;ratioP2;P2;SDS_P1;SDS_P2;PMS_P1;PMS_P2;Temp;Humidity;BMP_temperature;BMP_pressure;BME280_temperature;BME280_humidity;BME280_pressure;Samples;Min_cycle;Max_cycle;Signal;HPM_P1;HPM_P2
2023/10/14 00:00:35;;;;;;;;;8.67;8.33;;;;;18.64;65.67;101319.25;146616;622;46016;-69
2023/10/14 00:03:37;;;;;;;;;13.33;12.00;;;;;18.55;66.50;101322.50;146621;584;47010;-70
2023/10/14 00:06:41;;;;;;;;;13.67;12.00;;;;;17.23;66.32;101100.00;146613;581;47012;-69
2023/10/14 00:10:03;;;;;;;;;11.00;10.00;;;;;18.45;67.47;101326.62;146620;605;47010;-69
2023/10/14 00:13:12;;;;;;;;;11.00;9.67;;;;;18.41;67.90;101316.88;146612;684;46014;-68
2023/10/14 00:16:35;;;;;;;;;11.00;10.00;;;;;18.39;68.12;101315.94;146621;690;46010;-69
2023/10/14 00:19:40;;;;;;;;;12.00;10.00;;;;;18.39;67.81;101313.31;146613;579;46016;-68
2023/10/14 00:22:39;;;;;;;;;9.67;9.33;;;;;18.33;68.29;101318.37;146618;590;46020;-68
2023/10/14 00:25:40;;;;;;;;;10.00;10.00;;;;;18.31;68.08;101311.31;146616;577;46914;-68
2023/10/14 00:28:39;;;;;;;;;13.00;11.00;;;;;18.26;68.56;101308.56;146618;672;46020;-68
2023/10/14 00:31:34;;;;;;;;;12.00;10.00;;;;;18.20;68.22;101306.66;146616;595;46016;-68
2023/10/14 00:34:32;;;;;;;;;13.00;11.67;;;;;18.18;69.07;101320.56;146620;574;46010;-68
2023/10/14 00:37:36;;;;;;;;;12.00;11.67;;;;;18.10;69.00;101304.59;146617;599;46017;-68
2023/10/14 00:40:45;;;;;;;;;13.00;10.67;;;;;18.05;69.59;101316.69;146614;570;47010;-69
2023/10/14 00:43:49;;;;;;;;;13.67;12.00;;;;;18.03;69.52;101313.09;146612;614;47014;-69
2023/10/14 00:47:06;;;;;;;;;10.00;9.67;;;;;17.97;69.19;101315.53;146614;571;47012;-71
2023/10/14 00:50:33;;;;;;;;;12.00;10.67;;;;;17.89;69.54;101302.22;146617;618;46016;-70
2023/10/14 00:53:30;;;;;;;;;14.33;12.00;;;;;17.82;69.38;101305.50;146617;603;46021;-69
2023/10/14 00:56:31;;;;;;;;;12.33;11.00;;;;;17.79;70.96;101305.41;146614;586;46014;-68
2023/10/14 00:59:39;;;;;;;;;12.33;10.00;;;;;16.59;71.66;101111.94;146618;601;47010;-69
2023/10/14 01:02:38;;;;;;;;;14.67;12.00;;;;;17.66;72.11;101303.19;146614;601;46917;-68
2023/10/14 01:05:41;;;;;;;;;14.33;11.67;;;;;17.65;72.48;101301.41;146617;564;46020;-67
2023/10/14 01:08:43;;;;;;;;;13.00;12.00;;;;;17.68;71.17;101294.53;146612;664;46016;-67
2023/10/14 01:11:43;;;;;;;;;10.00;9.67;;;;;17.67;72.12;101292.75;146618;565;46034;-67
2023/10/14 01:14:41;;;;;;;;;11.33;9.00;;;;;17.67;71.62;101289.25;146619;596;46012;-68
2023/10/14 01:17:49;;;;;;;;;10.67;10.00;;;;;17.72;71.84;101285.00;146620;646;46020;-68
2023/10/14 01:20:56;;;;;;;;;11.33;11.00;;;;;17.80;71.75;101280.94;146614;584;46016;-68
2023/10/14 01:24:14;;;;;;;;;;;;;;;;;;;;;
2023/10/14 01:27:13;;;;;;;;;16.00;14.67;;;;;17.88;71.33;101268.97;146617;579;46018;-69
2023/10/14 01:30:26;;;;;;;;;11.33;10.00;;;;;17.85;70.85;101271.50;146619;599;46011;-68
2023/10/14 01:33:24;;;;;;;;;13.00;11.67;;;;;17.80;70.96;101266.94;146616;597;46012;-69
2023/10/14 01:36:37;;;;;;;;;11.33;10.33;;;;;16.59;70.56;101051.72;146611;570;46020;-68
2023/10/14 01:39:32;;;;;;;;;12.67;12.00;;;;;17.77;71.53;101262.47;146613;630;48014;-68
2023/10/14 01:42:36;;;;;;;;;11.67;10.33;;;;;17.80;70.98;101266.94;146617;683;46020;-69
2023/10/14 01:48:52;;;;;;;;;14.33;10.67;;;;;17.72;71.66;101258.78;146621;618;46020;-69
2023/10/14 01:51:55;;;;;;;;;10.50;10.00;;;;;17.66;71.26;101258.59;146616;664;46016;-68
2023/10/14 01:54:57;;;;;;;;;12.67;10.67;;;;;17.65;71.81;101262.06;146618;576;46020;-67
2023/10/14 01:57:53;;;;;;;;;10.33;8.67;;;;;17.62;71.63;101252.38;146614;569;46016;-67
2023/10/14 02:01:02;;;;;;;;;;;;;;;;;;;;;
2023/10/14 02:04:03;;;;;;;;;11.67;8.33;;;;;17.61;72.50;101254.97;146615;617;46014;-69
2023/10/14 02:07:18;;;;;;;;;10.33;9.00;;;;;17.66;72.33;101254.25;146621;686;46020;-69
2023/10/14 02:10:35;;;;;;;;;11.00;10.33;;;;;17.74;71.52;101255.38;146616;563;46012;-68
2023/10/14 02:13:39;;;;;;;;;12.67;9.00;;;;;17.80;71.09;101245.94;146618;625;47011;-69
2023/10/14 02:17:06;;;;;;;;;8.00;7.67;;;;;17.85;71.17;101250.50;146620;597;46016;-70
2023/10/14 02:20:38;;;;;;;;;11.00;10.00;;;;;17.85;70.18;101274.13;146622;730;46025;-69
2023/10/14 02:23:52;;;;;;;;;14.67;14.67;;;;;17.86;70.41;101252.28;146615;566;46012;-68
2023/10/14 02:27:02;;;;;;;;;;;;;;;;;;;;;
2023/10/14 02:30:19;;;;;;;;;11.00;10.00;;;;;17.88;69.85;101245.34;146616;629;46016;-69
2023/10/14 02:33:22;;;;;;;;;9.67;9.67;;;;;17.81;70.39;101256.47;146619;566;46010;-68
2023/10/14 02:36:47;;;;;;;;;;;;;;;;;;;;;
2023/10/14 02:39:44;;;;;;;;;11.33;11.00;;;;;17.66;71.04;101249.03;146617;593;46020;-67
2023/10/14 02:42:54;;;;;;;;;10.33;8.33;;;;;17.60;71.74;101254.06;146611;587;47012;-68
2023/10/14 02:45:58;;;;;;;;;12.67;12.00;;;;;17.53;71.71;101252.09;146621;576;46021;-67
2023/10/14 02:49:06;;;;;;;;;10.33;9.33;;;;;17.45;71.47;101254.47;146613;677;47012;-68
2023/10/14 02:52:08;;;;;;;;;10.33;9.33;;;;;17.41;72.91;101256.94;146616;635;47012;-67
2023/10/14 02:55:23;;;;;;;;;11.00;11.00;;;;;17.37;72.47;101261.19;146617;571;47012;-67
2023/10/14 02:58:49;;;;;;;;;12.00;11.00;;;;;17.32;73.01;101257.56;146618;631;47013;-67
2023/10/14 03:02:14;;;;;;;;;13.67;11.33;;;;;17.25;73.14;101258.19;146618;674;46012;-67
2023/10/14 03:08:57;;;;;;;;;10.50;9.50;;;;;16.47;72.43;101125.50;146618;667;47012;-68
2023/10/14 03:11:57;;;;;;;;;12.00;9.33;;;;;17.14;73.53;101246.47;146621;594;46020;-68
2023/10/14 03:15:00;;;;;;;;;15.67;13.00;;;;;17.13;73.56;101237.69;146616;566;46034;-67
2023/10/14 03:18:05;;;;;;;;;13.00;12.00;;;;;17.12;73.49;101235.03;146617;610;46020;-67
2023/10/14 03:21:30;;;;;;;;;13.00;11.00;;;;;17.06;73.62;101233.09;146614;581;46017;-69
2023/10/14 03:24:30;;;;;;;;;16.00;11.00;;;;;17.04;74.32;101232.16;146632;572;45020;-71
2023/10/14 03:27:39;;;;;;;;;15.00;9.67;;;;;17.01;74.50;101240.81;146632;586;46012;-69
2023/10/14 03:30:49;;;;;;;;;14.33;12.00;;;;;16.97;74.32;101236.31;146638;614;45020;-69
2023/10/14 03:33:47;;;;;;;;;14.33;12.33;;;;;16.99;74.61;101237.25;146633;554;46016;-69
2023/10/14 03:36:43;;;;;;;;;11.67;10.00;;;;;16.98;75.07;101240.72;146634;596;45021;-70
2023/10/14 03:39:46;;;;;;;;;12.00;12.00;;;;;16.93;74.53;101230.94;146633;564;45016;-69
2023/10/14 03:43:19;;;;;;;;;9.00;9.00;;;;;16.92;74.27;101234.41;146637;684;45010;-67
2023/10/14 03:46:23;;;;;;;;;10.67;10.00;;;;;16.91;75.23;101237.81;146635;595;45012;-68
2023/10/14 03:49:39;;;;;;;;;13.67;12.67;;;;;16.85;74.13;101235.88;146632;584;46010;-68
2023/10/14 03:52:45;;;;;;;;;12.00;11.00;;;;;16.82;74.71;101227.94;146632;577;45016;-69
2023/10/14 03:55:45;;;;;;;;;12.33;11.33;;;;;16.83;74.42;101233.22;146635;600;45020;-70
2023/10/14 03:58:57;;;;;;;;;10.33;10.33;;;;;15.72;73.83;101044.41;146634;677;45013;-70
2023/10/14 04:02:02;;;;;;;;;16.00;11.00;;;;;16.79;74.69;101236.59;146636;688;45010;-69
2023/10/14 04:05:27;;;;;;;;;12.00;10.67;;;;;16.76;74.02;101230.34;146623;597;46012;-69
2023/10/14 04:08:44;;;;;;;;;14.67;10.33;;;;;16.76;74.48;101232.97;146633;671;45020;-68
2023/10/14 04:11:44;;;;;;;;;10.33;10.33;;;;;16.72;74.50;101237.16;146633;597;45016;-68
2023/10/14 04:18:50;;;;;;;;;;;;;;;;;;;;;
2023/10/14 04:22:16;;;;;;;;;15.00;12.33;;;;;16.65;74.53;101229.06;146636;699;45020;-67
2023/10/14 04:25:27;;;;;;;;;13.00;13.00;;;;;16.58;74.63;101231.47;146614;612;46016;-66
2023/10/14 04:28:53;;;;;;;;;12.67;10.33;;;;;16.53;74.83;101234.75;146618;575;47033;-67
2023/10/14 04:31:57;;;;;;;;;12.67;12.67;;;;;16.53;74.50;101229.53;146614;595;46016;-67
2023/10/14 04:35:03;;;;;;;;;14.67;13.33;;;;;16.48;75.29;101225.84;146620;597;46010;-69
2023/10/14 04:38:18;;;;;;;;;12.67;10.33;;;;;16.45;74.74;101231.88;146617;583;46012;-68
2023/10/14 04:41:31;;;;;;;;;13.00;11.00;;;;;16.45;75.23;101246.66;146619;584;47020;-66
2023/10/14 04:44:37;;;;;;;;;8.33;8.00;;;;;16.47;75.33;101234.53;146614;580;46017;-67
2023/10/14 04:47:54;;;;;;;;;13.00;10.67;;;;;16.54;74.89;101236.53;146619;571;47010;-67
2023/10/14 04:51:02;;;;;;;;;12.00;12.00;;;;;16.55;75.11;101231.38;146602;637;47917;-66
2023/10/14 04:54:01;;;;;;;;;15.00;10.67;;;;;16.56;75.20;101240.97;146618;575;46020;-67
2023/10/14 04:57:23;;;;;;;;;15.33;12.00;;;;;15.70;74.47;101091.44;146615;619;46012;-67
2023/10/14 05:00:42;;;;;;;;;13.67;12.33;;;;;15.53;73.89;101045.47;146616;687;46010;-67
2023/10/14 05:03:46;;;;;;;;;13.25;12.00;;;;;16.71;74.33;101240.63;146616;597;46034;-66
2023/10/14 05:07:03;;;;;;;;;;;;;;;;;;;;;
2023/10/14 05:10:09;;;;;;;;;13.33;12.33;;;;;16.84;74.62;101248.09;146614;604;47014;-68
2023/10/14 05:13:36;;;;;;;;;13.00;12.00;;;;;16.94;74.43;101253.66;146616;667;46020;-67
2023/10/14 05:17:14;;;;;;;;;10.67;9.00;;;;;17.22;76.06;101253.72;146614;653;46012;-67
2023/10/14 05:23:48;;;;;;;;;14.33;13.00;;;;;18.28;72.55;101262.22;146611;606;46016;-67
2023/10/14 05:27:04;;;;;;;;;20.67;15.33;;;;;18.38;70.06;101268.63;146616;627;46020;-67
2023/10/14 05:30:00;;;;;;;;;17.50;14.25;;;;;18.35;70.40;101265.91;146610;623;46016;-66
2023/10/14 05:33:14;;;;;;;;;13.00;11.33;;;;;18.20;70.30;101269.91;146618;580;46012;-67
2023/10/14 05:36:28;;;;;;;;;13.00;12.00;;;;;18.08;70.71;101261.66;146614;599;46016;-68
2023/10/14 05:39:25;;;;;;;;;15.00;12.33;;;;;17.97;71.63;101276.19;146618;574;46010;-67
2023/10/14 05:42:25;;;;;;;;;18.67;15.00;;;;;17.81;72.18;101269.59;146612;653;47012;-67
2023/10/14 05:45:32;;;;;;;;;14.00;13.67;;;;;17.66;72.55;101274.34;146612;664;47010;-67
2023/10/14 05:48:33;;;;;;;;;17.33;16.00;;;;;17.59;73.41;101282.84;146613;690;46919;-67
2023/10/14 05:51:33;;;;;;;;;15.67;14.33;;;;;17.53;73.33;101284.44;146616;648;46010;-67
2023/10/14 05:54:41;;;;;;;;;14.33;12.33;;;;;17.55;74.41;101285.38;146611;563;46016;-68
2023/10/14 05:57:49;;;;;;;;;;;;;;;;;;;;;
2023/10/14 06:00:46;;;;;;;;;21.00;16.00;;;;;17.60;74.88;101287.25;146613;631;46016;-66
2023/10/14 06:04:05;;;;;;;;;16.33;13.33;;;;;17.57;75.09;101284.53;146618;606;46029;-67
2023/10/14 06:07:29;;;;;;;;;13.00;12.00;;;;;16.41;74.74;101072.94;146617;589;46012;-67
2023/10/14 06:10:26;;;;;;;;;15.00;14.00;;;;;17.68;75.91;101291.91;146619;610;47010;-66
2023/10/14 06:13:39;;;;;;;;;16.00;15.67;;;;;17.78;76.77;101295.72;146610;578;47016;-66
2023/10/14 06:16:34;;;;;;;;;15.00;15.00;;;;;17.93;77.01;101296.19;146616;613;46027;-67
2023/10/14 06:19:26;;;;;;;;;18.33;15.33;;;;;18.21;79.57;101287.41;146614;569;46017;-67
2023/10/14 06:22:25;;;;;;;;;18.00;15.33;;;;;18.59;78.08;101289.34;146616;580;46020;-67
2023/10/14 06:25:38;;;;;;;;;18.00;15.33;;;;;18.89;75.90;101290.22;146617;693;46016;-69
2023/10/14 06:28:40;;;;;;;;;11.67;11.00;;;;;19.22;74.00;101294.56;146616;598;46021;-67
2023/10/14 06:31:41;;;;;;;;;11.67;11.33;;;;;19.51;72.26;101289.12;146615;563;46016;-67
2023/10/14 06:34:49;;;;;;;;;;;;;;;;;;;;;
2023/10/14 06:37:57;;;;;;;;;16.33;14.67;;;;;19.89;68.88;101295.28;146614;662;46016;-67
2023/10/14 06:41:24;;;;;;;;;15.00;14.00;;;;;19.97;68.34;101292.81;146618;565;46013;-65
2023/10/14 06:44:16;;;;;;;;;15.67;14.00;;;;;20.06;69.62;101301.81;146613;577;46914;-68
2023/10/14 06:47:35;;;;;;;;;18.00;17.00;;;;;20.16;68.65;101299.38;146615;594;47010;-68
2023/10/14 06:50:37;;;;;;;;;21.67;19.00;;;;;20.24;69.98;101295.16;146612;620;47012;-68
2023/10/14 06:53:52;;;;;;;;;16.33;14.00;;;;;20.37;70.09;101294.53;146618;571;46020;-68
2023/10/14 06:56:50;;;;;;;;;17.67;15.00;;;;;20.47;68.42;101291.25;146612;575;46033;-69
2023/10/14 07:00:10;;;;;;;;;;;;;;;;;;;;;
2023/10/14 07:03:17;;;;;;;;;14.00;13.33;;;;;19.54;67.92;101098.06;146615;566;46013;-69
2023/10/14 07:06:18;;;;;;;;;19.33;16.33;;;;;20.83;66.75;101292.84;146614;565;46020;-70
2023/10/14 07:09:17;;;;;;;;;15.33;15.33;;;;;20.97;66.03;101288.72;146614;637;46016;-69
2023/10/14 07:12:31;;;;;;;;;18.00;15.67;;;;;21.10;65.12;101294.19;146614;596;47019;-69
2023/10/14 07:15:37;;;;;;;;;18.33;17.00;;;;;21.21;66.35;101288.25;146615;586;47012;-70
2023/10/14 07:18:41;;;;;;;;;16.67;15.00;;;;;21.39;65.95;101286.78;146614;605;46021;-67
2023/10/14 07:21:42;;;;;;;;;27.00;24.25;;;;;21.57;65.10;101296.75;146614;673;46918;-70
2023/10/14 07:24:41;;;;;;;;;24.00;22.00;;;;;21.69;63.77;101291.66;146633;649;46010;-69
2023/10/14 07:27:36;;;;;;;;;19.00;17.67;;;;;21.77;62.95;101286.47;146633;651;45017;-69
2023/10/14 07:30:45;;;;;;;;;;;;;;;;;;;;;
2023/10/14 07:34:02;;;;;;;;;20.67;17.00;;;;;21.83;63.43;101284.81;146633;564;46012;-70
2023/10/14 07:37:05;;;;;;;;;22.33;21.00;;;;;21.97;62.89;101286.78;146636;689;45913;-71
2023/10/14 07:40:27;;;;;;;;;25.00;21.00;;;;;22.10;62.22;101292.22;146630;584;45939;-70
2023/10/14 07:43:36;;;;;;;;;19.67;17.67;;;;;22.20;62.32;101285.34;146636;654;46010;-70
2023/10/14 07:46:36;;;;;;;;;21.75;18.25;;;;;22.33;61.00;101287.25;146630;563;46016;-70
2023/10/14 07:49:38;;;;;;;;;23.67;22.00;;;;;22.41;60.21;101279.44;146626;578;46012;-71
2023/10/14 07:52:42;;;;;;;;;19.33;17.67;;;;;22.54;60.21;101281.34;146629;593;46032;-70
2023/10/14 07:55:39;;;;;;;;;19.33;17.00;;;;;22.74;61.63;101281.56;146636;583;45010;-70
2023/10/14 07:58:31;;;;;;;;;21.00;19.67;;;;;23.02;60.61;101272.16;146632;573;46014;-70
2023/10/14 08:01:29;;;;;;;;;18.00;17.67;;;;;23.24;60.53;101280.25;146635;569;45020;-70
2023/10/14 08:04:33;;;;;;;;;18.00;16.67;;;;;23.35;58.54;101273.28;146629;602;45915;-71
2023/10/14 08:07:29;;;;;;;;;19.33;18.33;;;;;23.55;59.10;101277.84;146635;627;45010;-71
2023/10/14 08:10:27;;;;;;;;;19.67;19.33;;;;;23.69;59.27;101279.75;146629;585;45915;-70
2023/10/14 08:13:26;;;;;;;;;18.33;14.67;;;;;23.95;56.79;101277.22;146636;596;45010;-70
2023/10/14 08:16:23;;;;;;;;;17.00;15.00;;;;;24.22;55.33;101270.31;146630;602;45016;-69
2023/10/14 08:19:26;;;;;;;;;;;;;;;;;;;;;
2023/10/14 08:22:29;;;;;;;;;13.00;11.00;;;;;24.34;57.02;101267.69;146629;565;46912;-70
2023/10/14 08:25:28;;;;;;;;;18.00;17.67;;;;;24.51;54.31;101267.75;146620;587;46021;-70
2023/10/14 08:28:39;;;;;;;;;16.00;13.67;;;;;24.65;55.96;101267.81;146613;611;46012;-70
2023/10/14 08:31:34;;;;;;;;;19.00;17.00;;;;;24.86;54.34;101266.97;146619;608;46020;-70
2023/10/14 08:34:30;;;;;;;;;20.00;17.33;;;;;25.08;51.48;101259.91;146609;647;46017;-70
2023/10/14 08:37:39;;;;;;;;;15.00;14.00;;;;;24.30;54.55;101104.25;146614;569;48020;-70
2023/10/14 08:40:36;;;;;;;;;14.00;13.00;;;;;24.98;53.71;101176.75;146615;584;47014;-70
2023/10/14 08:43:58;;;;;;;;;14.67;13.67;;;;;25.68;56.19;101257.19;146619;584;47010;-70
2023/10/14 08:47:09;;;;;;;;;;;;;;;;;;;;;
2023/10/14 08:50:15;;;;;;;;;14.33;14.00;;;;;26.24;52.25;101243.72;146617;591;47022;-70
2023/10/14 08:53:23;;;;;;;;;15.33;14.67;;;;;26.44;51.49;101246.25;146614;571;46016;-71
2023/10/14 08:56:42;;;;;;;;;15.67;14.67;;;;;26.52;50.79;101238.28;146620;663;46010;-71
2023/10/14 08:59:57;;;;;;;;;14.00;12.33;;;;;26.48;51.04;101232.12;146612;649;46917;-72
2023/10/14 09:03:10;;;;;;;;;;;;;;;;;;;;;
2023/10/14 09:06:06;;;;;;;;;14.00;11.67;;;;;26.48;49.55;101232.12;146613;613;47921;-72
2023/10/14 09:09:20;;;;;;;;;15.67;12.67;;;;;26.51;51.41;101233.84;146622;574;46010;-70
2023/10/14 09:12:26;;;;;;;;;14.33;12.67;;;;;26.54;49.90;101232.94;146614;565;46016;-71
2023/10/14 09:15:21;;;;;;;;;18.00;15.00;;;;;26.68;50.41;101229.31;146621;565;46012;-70
2023/10/14 09:18:32;;;;;;;;;19.00;16.33;;;;;26.84;52.58;101223.87;146614;565;46017;-71
2023/10/14 09:21:47;;;;;;;;;18.33;15.00;;;;;26.90;49.89;101224.69;146612;617;46020;-70
2023/10/14 09:24:46;;;;;;;;;18.00;17.67;;;;;26.90;50.77;101213.19;146630;571;45916;-72
2023/10/14 09:27:52;;;;;;;;;18.33;18.33;;;;;26.87;49.73;101218.53;146635;567;45010;-70
2023/10/14 09:30:54;;;;;;;;;20.67;20.00;;;;;26.87;50.15;101214.09;146631;573;45916;-71
2023/10/14 09:33:52;;;;;;;;;20.00;17.00;;;;;26.82;50.15;101215.00;146636;590;45021;-71
2023/10/14 09:36:50;;;;;;;;;54.50;43.25;;;;;26.70;50.38;101203.59;146629;654;45016;-71
2023/10/14 09:39:57;;;;;;;;;19.00;16.67;;;;;26.71;53.88;101201.81;146637;593;46010;-70
2023/10/14 09:42:59;;;;;;;;;16.00;14.00;;;;;26.88;51.64;101199.87;146632;597;45916;-72
2023/10/14 09:46:08;;;;;;;;;13.33;13.33;;;;;27.08;49.12;101193.50;146635;586;46021;-71
2023/10/14 09:49:10;;;;;;;;;14.67;12.67;;;;;27.10;48.58;101200.59;146635;640;45017;-71
2023/10/14 09:52:46;;;;;;;;;12.00;12.00;;;;;26.60;54.15;101107.91;146634;569;46010;-72
2023/10/14 09:55:41;;;;;;;;;11.00;11.00;;;;;27.06;47.68;101190.84;146632;613;45012;-70
2023/10/14 09:58:57;;;;;;;;;9.67;9.67;;;;;27.04;49.10;101178.44;146637;569;45020;-69
2023/10/14 10:02:05;;;;;;;;;12.33;11.67;;;;;27.06;50.02;101169.56;146633;606;45014;-72
2023/10/14 10:05:17;;;;;;;;;12.33;11.33;;;;;27.22;51.07;101172.09;146636;580;45010;-70
2023/10/14 10:08:49;;;;;;;;;10.67;9.00;;;;;26.20;49.56;100994.78;146634;678;45916;-70
2023/10/14 10:12:14;;;;;;;;;13.67;12.67;;;;;26.07;49.70;100986.91;146634;570;46010;-71
2023/10/14 10:15:25;;;;;;;;;14.33;12.67;;;;;27.14;48.03;101159.75;146633;581;45018;-71
2023/10/14 10:18:49;;;;;;;;;15.00;13.33;;;;;27.34;50.53;101143.56;146637;582;45010;-70
2023/10/14 10:21:44;;;;;;;;;13.67;11.33;;;;;27.54;44.70;101143.34;146632;641;45016;-71
2023/10/14 10:24:57;;;;;;;;;11.33;10.00;;;;;27.69;49.73;101136.91;146633;648;45021;-70
2023/10/14 10:28:01;;;;;;;;;15.33;14.33;;;;;27.78;46.45;101125.28;146630;587;46014;-70
2023/10/14 10:30:53;;;;;;;;;15.67;14.33;;;;;27.73;43.99;101122.69;146635;580;46010;-71
2023/10/14 10:34:08;;;;;;;;;15.33;14.00;;;;;27.72;49.47;101115.56;146636;632;45016;-72
2023/10/14 10:37:14;;;;;;;;;13.67;13.67;;;;;27.95;47.54;101117.09;146637;627;45020;-71
2023/10/14 10:40:17;;;;;;;;;15.00;14.00;;;;;28.20;46.83;101106.94;146634;582;45914;-71
2023/10/14 10:43:36;;;;;;;;;12.67;12.67;;;;;28.40;47.97;101106.62;146633;594;45020;-71
2023/10/14 10:47:04;;;;;;;;;15.67;12.33;;;;;28.52;45.49;101106.44;146631;594;45915;-72
2023/10/14 10:50:11;;;;;;;;;15.00;12.00;;;;;28.59;43.10;101094.75;146628;636;46010;-71
2023/10/14 10:53:37;;;;;;;;;14.00;14.00;;;;;28.58;51.87;101090.34;146635;685;45017;-70
2023/10/14 10:56:55;;;;;;;;;19.00;15.67;;;;;27.52;50.01;100896.56;146634;653;45021;-72
2023/10/14 10:59:52;;;;;;;;;15.67;14.00;;;;;28.72;47.46;101079.41;146632;573;45016;-72
2023/10/14 11:02:58;;;;;;;;;13.00;13.00;;;;;28.82;44.30;101077.44;146636;595;45021;-69
2023/10/14 11:06:02;;;;;;;;;14.67;13.67;;;;;27.75;49.15;100912.16;146628;591;47025;-70
2023/10/14 11:08:57;;;;;;;;;14.00;12.33;;;;;28.55;45.06;101071.72;146630;571;46012;-70
2023/10/14 11:12:05;;;;;;;;;14.33;13.00;;;;;28.58;46.35;101068.13;146633;579;45012;-70
2023/10/14 11:15:07;;;;;;;;;12.33;11.33;;;;;28.60;42.91;101064.50;146631;600;45021;-69
2023/10/14 11:18:11;;;;;;;;;12.67;11.00;;;;;28.59;46.35;101062.72;146631;650;46016;-71
2023/10/14 11:21:20;;;;;;;;;16.00;14.33;;;;;28.56;46.20;101052.12;146637;620;45020;-71
2023/10/14 11:24:30;;;;;;;;;14.67;13.67;;;;;27.60;46.12;100887.53;146614;616;47017;-71
2023/10/14 11:27:30;;;;;;;;;16.33;14.00;;;;;28.50;45.30;101050.44;146618;652;46020;-70
2023/10/14 11:30:55;;;;;;;;;14.33;13.00;;;;;27.45;46.85;100871.81;146612;606;46016;-72
2023/10/14 11:33:56;;;;;;;;;13.33;11.33;;;;;28.22;42.79;101039.31;146615;587;47012;-70
2023/10/14 11:37:19;;;;;;;;;13.67;13.67;;;;;27.87;45.29;101046.09;146612;673;47030;-70
2023/10/14 11:40:53;;;;;;;;;14.00;14.00;;;;;27.73;47.23;101039.22;146620;566;46020;-70
2023/10/14 11:44:19;;;;;;;;;12.67;12.00;;;;;27.64;45.43;101021.56;146615;563;46012;-70
2023/10/14 11:47:21;;;;;;;;;14.67;12.33;;;;;27.61;46.87;101027.81;146617;632;46020;-70
2023/10/14 11:50:41;;;;;;;;;14.00;13.00;;;;;27.09;45.27;100931.75;146611;620;46012;-70
2023/10/14 11:53:39;;;;;;;;;14.33;14.33;;;;;27.48;45.12;101012.91;146617;578;47010;-70
2023/10/14 11:56:38;;;;;;;;;14.00;13.00;;;;;27.46;45.14;101011.16;146614;621;46012;-69
2023/10/14 11:59:40;;;;;;;;;16.33;14.67;;;;;27.28;44.71;101017.63;146615;631;47010;-71
2023/10/14 12:02:38;;;;;;;;;15.33;13.00;;;;;27.22;45.57;101013.25;146614;659;46016;-70
2023/10/14 12:05:43;;;;;;;;;14.67;14.67;;;;;27.14;43.71;101007.16;146617;592;46020;-71
2023/10/14 12:09:03;;;;;;;;;12.67;11.67;;;;;27.09;45.25;101007.16;146611;597;46017;-70
2023/10/14 12:12:05;;;;;;;;;14.00;13.00;;;;;27.02;45.36;101000.16;146617;605;47010;-71
2023/10/14 12:15:21;;;;;;;;;13.33;13.33;;;;;26.99;45.88;100996.66;146616;600;46013;-70
2023/10/14 12:18:20;;;;;;;;;14.67;13.67;;;;;26.99;46.81;100992.22;146617;577;46020;-70
2023/10/14 12:21:23;;;;;;;;;12.67;12.00;;;;;26.93;45.32;100989.63;146611;630;46016;-71
2023/10/14 12:24:32;;;;;;;;;12.00;11.67;;;;;26.82;44.59;100989.78;146618;613;46020;-70
2023/10/14 12:27:28;;;;;;;;;11.67;10.00;;;;;26.74;44.05;100982.75;146614;579;47014;-70
2023/10/14 12:30:43;;;;;;;;;13.33;12.67;;;;;26.64;45.96;100984.66;146620;641;46010;-70
2023/10/14 12:33:50;;;;;;;;;12.00;10.67;;;;;26.59;46.53;100989.13;146614;611;47014;-70
2023/10/14 12:36:48;;;;;;;;;12.67;10.33;;;;;26.54;43.80;100980.31;146617;715;46020;-69
2023/10/14 12:39:59;;;;;;;;;11.00;11.00;;;;;26.51;44.23;100978.56;146614;589;46033;-71
2023/10/14 12:42:59;;;;;;;;;10.33;10.00;;;;;26.56;46.35;100978.53;146618;585;46020;-70
2023/10/14 12:49:18;;;;;;;;;10.67;10.00;;;;;26.57;42.72;100977.62;146621;580;46022;-70
2023/10/14 12:52:15;;;;;;;;;16.00;10.33;;;;;26.52;42.67;100968.81;146615;569;46017;-71
2023/10/14 12:55:35;;;;;;;;;;;;;;;;;;;;;
2023/10/14 12:58:53;;;;;;;;;10.00;9.00;;;;;26.42;44.45;100966.22;146616;596;47012;-71
2023/10/14 13:02:10;;;;;;;;;10.33;10.33;;;;;26.34;43.92;100959.22;146618;579;46021;-71
2023/10/14 13:05:05;;;;;;;;;12.00;10.33;;;;;26.33;44.43;100960.13;146614;631;47012;-71
2023/10/14 13:08:12;;;;;;;;;14.00;13.67;;;;;26.28;45.08;100962.81;146618;685;46010;-71
2023/10/14 13:11:16;;;;;;;;;12.00;10.67;;;;;26.23;45.11;100964.62;146614;610;46917;-72
2023/10/14 13:14:25;;;;;;;;;11.67;11.67;;;;;26.19;45.01;100952.25;146616;589;46020;-70
2023/10/14 13:17:26;;;;;;;;;15.33;13.67;;;;;26.17;45.60;100954.94;146618;675;46012;-71
2023/10/14 13:20:59;;;;;;;;;11.33;10.00;;;;;25.20;45.78;100786.66;146615;585;47010;-71
2023/10/14 13:24:06;;;;;;;;;11.00;9.67;;;;;26.20;45.36;100946.94;146610;574;46016;-72
2023/10/14 13:27:07;;;;;;;;;9.33;9.00;;;;;26.18;43.95;100946.06;146616;565;47020;-71
2023/10/14 13:30:08;;;;;;;;;12.00;11.00;;;;;26.17;44.74;100939.00;146615;570;47014;-70
2023/10/14 13:33:12;;;;;;;;;10.00;10.00;;;;;26.17;46.45;100936.34;146617;641;47010;-71
2023/10/14 13:36:16;;;;;;;;;11.00;10.00;;;;;25.17;47.04;100758.41;146613;556;47012;-71
2023/10/14 13:39:22;;;;;;;;;12.00;12.00;;;;;26.23;48.35;100936.28;146616;671;47010;-71
2023/10/14 13:42:23;;;;;;;;;14.33;14.00;;;;;26.33;45.82;100938.84;146612;565;46016;-70
2023/10/14 13:45:22;;;;;;;;;14.00;12.67;;;;;26.41;47.29;100929.00;146619;621;46021;-72
2023/10/14 13:48:31;;;;;;;;;10.33;10.33;;;;;26.46;47.45;100928.06;146614;585;46016;-70
2023/10/14 13:51:30;;;;;;;;;12.67;12.67;;;;;26.51;47.14;100929.81;146617;671;47011;-70
2023/10/14 13:54:34;;;;;;;;;12.00;11.67;;;;;26.48;47.80;100923.66;146613;597;46016;-71
2023/10/14 13:57:34;;;;;;;;;12.33;11.33;;;;;26.47;47.72;100918.31;146615;575;47010;-72
2023/10/14 14:00:49;;;;;;;;;;;;;;;;;;;;;
2023/10/14 14:04:03;;;;;;;;;12.00;11.00;;;;;25.24;48.59;100728.25;146617;590;46020;-71
2023/10/14 14:06:57;;;;;;;;;13.00;12.00;;;;;26.27;47.58;100926.50;146616;592;46012;-69
2023/10/14 14:09:37;;;;;;;;;12.67;12.00;;;;;26.20;47.95;100917.72;146712;575;46014;-69
2023/10/14 14:13:06;;;;;;;;;13.00;13.00;;;;;26.11;50.43;100911.59;146616;570;46016;-71
2023/10/14 14:16:06;;;;;;;;;7.67;7.00;;;;;26.10;51.13;100912.47;146618;646;47012;-70
2023/10/14 14:19:03;;;;;;;;;14.00;13.33;;;;;26.08;51.07;100915.19;146623;615;46032;-69
2023/10/14 14:22:06;;;;;;;;;13.67;11.33;;;;;26.03;51.67;100909.88;146622;569;46010;-69
2023/10/14 14:25:21;;;;;;;;;14.67;13.67;;;;;25.87;52.90;100904.75;146619;625;47012;-69
2023/10/14 14:28:17;;;;;;;;;19.67;16.00;;;;;25.75;52.41;100903.91;146621;588;47010;-69
2023/10/14 14:31:12;;;;;;;;;19.75;16.25;;;;;25.61;52.73;100897.84;146618;664;47012;-69
2023/10/14 14:34:09;;;;;;;;;18.33;16.33;;;;;25.48;53.56;100899.72;146621;681;47010;-69
2023/10/14 14:37:14;;;;;;;;;11.33;10.33;;;;;25.42;53.88;100902.41;146616;638;46012;-71
2023/10/14 14:40:31;;;;;;;;;12.67;12.67;;;;;25.39;53.93;100898.88;146621;620;47010;-70
2023/10/14 14:43:32;;;;;;;;;14.00;12.67;;;;;25.30;53.07;100890.09;146615;564;47014;-70
2023/10/14 14:46:39;;;;;;;;;15.00;13.00;;;;;25.24;54.79;100886.59;146616;643;47011;-71
2023/10/14 14:49:39;;;;;;;;;12.00;11.00;;;;;25.23;54.50;100892.78;146616;612;47014;-71
2023/10/14 14:52:31;;;;;;;;;12.00;11.33;;;;;25.19;53.68;100886.62;146621;577;48011;-70